createdAt,value
2023-04-17T00:01:25.347Z,15.85
2023-04-17T00:03:52.990Z,14.40
2023-04-17T00:06:21.630Z,14.20
2023-04-17T00:08:47.977Z,14.32
2023-04-17T00:11:14.430Z,14.05
2023-04-17T00:13:40.959Z,14.80
2023-04-17T00:16:10.593Z,13.65
2023-04-17T00:18:36.977Z,14.15
2023-04-17T00:21:06.434Z,14.23
2023-04-17T00:23:32.819Z,14.02
2023-04-17T00:25:59.174Z,15.75
2023-04-17T00:28:25.603Z,15.25
2023-04-17T00:30:52.260Z,14.32
2023-04-17T00:33:18.603Z,17.23
2023-04-17T00:35:48.051Z,14.73
2023-04-17T00:38:14.470Z,14.27
2023-04-17T00:40:41.927Z,14.45
2023-04-17T00:43:10.650Z,13.95
2023-04-17T00:45:37.033Z,14.07
2023-04-17T00:48:06.623Z,14.27
2023-04-17T00:50:33.523Z,13.75
2023-04-17T00:53:00.887Z,14.23
2023-04-17T00:55:28.721Z,12.57
2023-04-17T00:57:56.255Z,14.05
2023-04-17T01:00:22.908Z,13.50
2023-04-17T01:02:49.402Z,15.35
2023-04-17T01:05:15.819Z,13.65
2023-04-17T01:07:42.580Z,14.65
2023-04-17T01:10:09.348Z,12.90
2023-04-17T01:12:36.310Z,12.75
2023-04-17T01:15:02.997Z,14.98
2023-04-17T01:17:29.375Z,16.10
2023-04-17T01:19:57.512Z,14.48
2023-04-17T01:22:24.755Z,13.05
2023-04-17T01:24:51.135Z,13.77
2023-04-17T01:27:17.562Z,15.05
2023-04-17T01:29:44.257Z,15.40
2023-04-17T01:32:13.696Z,14.80
2023-04-17T01:34:40.102Z,14.95
2023-04-17T01:37:06.984Z,15.48
2023-04-17T01:39:33.667Z,15.32
2023-04-17T01:42:00.070Z,14.95
2023-04-17T01:44:26.411Z,14.80
2023-04-17T01:46:52.735Z,15.48
2023-04-17T01:49:19.476Z,14.55
2023-04-17T01:51:48.215Z,15.98
2023-04-17T01:54:16.509Z,14.68
2023-04-17T01:56:42.929Z,14.32
2023-04-17T01:59:10.241Z,15.15
2023-04-17T02:01:37.410Z,15.73
2023-04-17T02:04:04.076Z,14.77
2023-04-17T02:06:31.845Z,14.93
2023-04-17T02:08:59.206Z,15.00
2023-04-17T02:11:26.250Z,15.40
2023-04-17T02:13:53.453Z,14.77
2023-04-17T02:16:21.652Z,15.00
2023-04-17T02:18:49.316Z,14.10
2023-04-17T02:21:15.793Z,15.20
2023-04-17T02:23:42.422Z,14.95
2023-04-17T02:26:08.771Z,14.35
2023-04-17T02:28:35.251Z,14.85
2023-04-17T02:31:01.721Z,14.55
2023-04-17T02:33:28.087Z,15.50
2023-04-17T02:35:54.416Z,16.13
2023-04-17T02:38:20.853Z,15.15
2023-04-17T02:40:47.192Z,14.82
2023-04-17T02:43:14.050Z,15.50
2023-04-17T02:45:40.434Z,15.05
2023-04-17T02:48:06.810Z,15.52
2023-04-17T02:50:33.284Z,15.85
2023-04-17T02:52:59.650Z,14.18
2023-04-17T02:55:25.984Z,15.65
2023-04-17T02:57:52.293Z,15.07
2023-04-17T03:00:18.643Z,15.32
2023-04-17T03:02:45.544Z,15.68
2023-04-17T03:05:14.821Z,15.27
2023-04-17T03:07:43.252Z,15.18
2023-04-17T03:10:09.789Z,17.00
2023-04-17T03:12:36.239Z,15.23
2023-04-17T03:15:02.696Z,15.63
2023-04-17T03:17:29.829Z,14.88
2023-04-17T03:19:56.245Z,15.80
2023-04-17T03:22:22.708Z,15.85
2023-04-17T03:24:49.020Z,15.63
2023-04-17T03:27:15.558Z,16.90
2023-04-17T03:29:41.886Z,15.70
2023-04-17T03:32:08.451Z,16.65
2023-04-17T03:34:34.819Z,16.15
2023-04-17T03:37:01.144Z,16.08
2023-04-17T03:39:27.531Z,15.80
2023-04-17T03:41:53.863Z,17.45
2023-04-17T03:44:20.200Z,16.42
2023-04-17T03:46:46.608Z,15.95
2023-04-17T03:49:13.151Z,17.52
2023-04-17T03:51:39.892Z,18.88
2023-04-17T03:54:06.335Z,17.90
2023-04-17T03:56:32.864Z,17.70
2023-04-17T03:59:04.412Z,16.42
2023-04-17T04:01:32.728Z,17.90
2023-04-17T04:03:59.948Z,18.00
2023-04-17T04:06:29.806Z,18.52
2023-04-17T04:08:58.785Z,17.58
2023-04-17T04:11:25.098Z,17.05
2023-04-17T04:13:51.436Z,16.92
2023-04-17T04:16:17.830Z,17.73
2023-04-17T04:18:44.245Z,17.15
2023-04-17T04:21:12.092Z,15.48
2023-04-17T04:23:41.094Z,18.40
2023-04-17T04:26:09.727Z,17.40
2023-04-17T04:28:37.297Z,19.45
2023-04-17T04:31:04.487Z,18.20
2023-04-17T04:33:31.212Z,18.00
2023-04-17T04:36:01.085Z,19.17
2023-04-17T04:38:32.361Z,19.02
2023-04-17T04:41:03.389Z,18.90
2023-04-17T04:43:31.069Z,18.73
2023-04-17T04:45:57.597Z,19.75
2023-04-17T04:48:30.720Z,18.92
2023-04-17T04:51:02.133Z,19.15
2023-04-17T04:53:28.971Z,20.58
2023-04-17T04:55:56.849Z,19.85
2023-04-17T04:58:23.906Z,18.95
2023-04-17T05:00:51.083Z,21.08
2023-04-17T05:03:17.971Z,19.95
2023-04-17T05:05:44.954Z,18.48
2023-04-17T05:08:27.238Z,20.00
2023-04-17T05:13:24.699Z,18.83
2023-04-17T05:15:51.567Z,20.95
2023-04-17T05:18:24.102Z,20.50
2023-04-17T05:20:51.732Z,20.10
2023-04-17T05:23:25.103Z,22.27
2023-04-17T05:25:52.227Z,21.08
2023-04-17T05:28:22.866Z,21.58
2023-04-17T05:30:49.380Z,22.15
2023-04-17T05:33:15.952Z,21.25
2023-04-17T05:35:43.774Z,22.95
2023-04-17T05:38:18.036Z,21.90
2023-04-17T05:40:44.920Z,23.23
2023-04-17T05:43:12.424Z,21.10
2023-04-17T05:45:41.383Z,22.25
2023-04-17T05:48:08.184Z,21.70
2023-04-17T05:50:42.073Z,21.38
2023-04-17T05:53:11.114Z,22.52
2023-04-17T05:55:40.514Z,21.25
2023-04-17T05:58:23.007Z,21.98
2023-04-17T06:00:53.275Z,22.42
2023-04-17T06:03:28.068Z,20.98
2023-04-17T06:05:54.868Z,21.13
2023-04-17T06:08:23.612Z,20.98
2023-04-17T06:10:52.348Z,20.75
2023-04-17T06:13:21.305Z,20.23
2023-04-17T06:15:49.987Z,20.48
2023-04-17T06:18:17.612Z,20.92
2023-04-17T06:20:49.501Z,21.55
2023-04-17T06:23:17.695Z,20.98
2023-04-17T06:25:46.901Z,20.65
2023-04-17T06:30:39.703Z,21.02
2023-04-17T06:33:06.432Z,27.30
2023-04-17T06:35:56.488Z,27.20
2023-04-17T06:38:29.256Z,33.25
2023-04-17T06:41:00.865Z,19.85
2023-04-17T06:43:32.217Z,20.30
2023-04-17T06:46:41.403Z,20.90
2023-04-17T06:49:11.214Z,20.05
2023-04-17T06:51:38.418Z,19.70
2023-04-17T06:54:05.084Z,20.77
2023-04-17T06:56:33.738Z,19.02
2023-04-17T06:59:03.811Z,18.05
2023-04-17T07:01:40.222Z,17.55
2023-04-17T07:04:08.503Z,18.98
2023-04-17T07:06:36.487Z,18.60
2023-04-17T07:09:07.302Z,17.73
2023-04-17T07:11:45.162Z,18.10
2023-04-17T07:14:22.371Z,16.60
2023-04-17T07:16:51.145Z,16.73
2023-04-17T07:19:20.216Z,16.55
2023-04-17T07:21:46.921Z,16.55
2023-04-17T07:24:24.850Z,16.77
2023-04-17T07:26:57.962Z,15.93
2023-04-17T07:29:33.442Z,15.88
2023-04-17T07:32:07.034Z,16.27
2023-04-17T07:34:41.294Z,14.68
2023-04-17T07:37:17.801Z,14.85
2023-04-17T07:40:02.785Z,15.30
2023-04-17T07:42:36.728Z,16.50
2023-04-17T07:45:11.430Z,15.27
2023-04-17T07:47:38.443Z,14.05
2023-04-17T07:50:05.620Z,13.95
2023-04-17T07:52:34.050Z,14.20
2023-04-17T07:55:00.681Z,16.33
2023-04-17T07:57:27.063Z,12.57
2023-04-17T07:59:53.863Z,12.55
2023-04-17T08:02:28.514Z,13.05
2023-04-17T08:05:01.663Z,12.40
2023-04-17T08:10:09.315Z,12.18
2023-04-17T08:12:36.350Z,11.68
2023-04-17T08:15:12.473Z,8.90
2023-04-17T08:17:43.739Z,10.50
2023-04-17T08:20:11.669Z,7.97
2023-04-17T08:22:41.420Z,8.05
2023-04-17T08:25:12.980Z,7.10
2023-04-17T08:27:49.608Z,6.78
2023-04-17T08:30:27.470Z,6.72
2023-04-17T08:33:12.701Z,6.85
2023-04-17T08:35:57.886Z,7.35
2023-04-17T08:38:41.771Z,7.55
2023-04-17T08:41:13.343Z,7.15
2023-04-17T08:46:28.174Z,8.35
2023-04-17T08:48:55.466Z,8.32
2023-04-17T08:51:30.509Z,8.10
2023-04-17T08:53:57.439Z,7.95
2023-04-17T08:56:26.343Z,7.40
2023-04-17T08:58:59.543Z,8.57
2023-04-17T09:01:27.075Z,7.60
2023-04-17T09:03:54.112Z,7.95
2023-04-17T09:06:23.141Z,9.65
2023-04-17T09:09:01.857Z,9.95
2023-04-17T09:11:32.112Z,8.30
2023-04-17T09:14:02.696Z,8.23
2023-04-17T09:16:29.536Z,7.53
2023-04-17T09:19:05.993Z,7.57
2023-04-17T09:21:39.789Z,8.43
2023-04-17T09:24:10.044Z,8.40
2023-04-17T09:26:37.024Z,7.57
2023-04-17T09:29:11.080Z,7.40
2023-04-17T09:31:44.145Z,7.15
2023-04-17T09:34:15.325Z,7.22
2023-04-17T09:36:48.129Z,7.78
2023-04-17T09:39:35.520Z,7.47
2023-04-17T09:42:11.048Z,7.47
2023-04-17T09:44:40.288Z,9.23
2023-04-17T09:47:08.281Z,8.45
2023-04-17T09:49:42.839Z,8.88
2023-04-17T09:52:12.345Z,7.93
2023-04-17T09:54:39.830Z,9.18
2023-04-17T09:57:08.436Z,7.55
2023-04-17T09:59:41.686Z,8.18
2023-04-17T10:02:12.720Z,6.93
2023-04-17T10:04:42.972Z,9.80
2023-04-17T10:07:18.399Z,8.15
2023-04-17T10:09:51.163Z,8.93
2023-04-17T10:12:20.441Z,8.63
2023-04-17T10:14:51.817Z,9.20
2023-04-17T10:17:31.616Z,8.93
2023-04-17T10:20:33.471Z,8.95
2023-04-17T10:25:46.743Z,10.98
2023-04-17T10:28:13.728Z,10.15
2023-04-17T10:30:59.972Z,10.05
2023-04-17T10:33:28.872Z,10.57
2023-04-17T10:35:55.518Z,9.80
2023-04-17T10:38:35.575Z,11.48
2023-04-17T10:41:04.219Z,11.80
2023-04-17T10:43:31.479Z,10.98
2023-04-17T10:46:15.224Z,11.23
2023-04-17T10:48:52.802Z,11.02
2023-04-17T10:51:28.984Z,11.43
2023-04-17T10:54:06.355Z,11.23
2023-04-17T10:56:48.878Z,10.25
2023-04-17T10:59:23.159Z,10.85
2023-04-17T11:01:54.484Z,9.80
2023-04-17T11:04:31.621Z,7.20
2023-04-17T11:07:00.982Z,6.40
2023-04-17T11:09:30.583Z,5.07
2023-04-17T11:12:06.765Z,4.45
2023-04-17T11:14:40.461Z,4.57
2023-04-17T11:17:12.006Z,3.80
2023-04-17T11:19:41.360Z,3.38
2023-04-17T11:22:12.618Z,3.40
2023-04-17T11:24:41.009Z,3.65
2023-04-17T11:27:10.999Z,3.28
2023-04-17T11:29:37.696Z,4.00
2023-04-17T11:32:04.497Z,3.33
2023-04-17T11:34:32.463Z,3.25
2023-04-17T11:37:03.369Z,2.97
2023-04-17T11:39:42.353Z,3.30
2023-04-17T11:42:09.049Z,3.78
2023-04-17T11:44:35.617Z,4.38
2023-04-17T11:47:05.620Z,4.25
2023-04-17T11:49:42.405Z,5.07
2023-04-17T11:52:12.443Z,5.10
2023-04-17T11:54:39.036Z,4.38
2023-04-17T11:57:06.443Z,3.92
2023-04-17T11:59:38.392Z,5.15
2023-04-17T12:02:07.347Z,4.55
2023-04-17T12:04:36.591Z,5.30
2023-04-17T12:07:08.251Z,5.90
2023-04-17T12:09:35.883Z,4.95
2023-04-17T12:12:10.784Z,5.13
2023-04-17T12:14:39.321Z,6.60
2023-04-17T12:17:06.130Z,6.47
2023-04-17T12:19:36.660Z,5.90
2023-04-17T12:22:03.415Z,6.22
2023-04-17T12:24:30.180Z,5.97
2023-04-17T12:26:58.557Z,6.45
2023-04-17T12:29:43.259Z,6.30
2023-04-17T12:32:11.194Z,6.57
2023-04-17T12:34:37.765Z,8.00
2023-04-17T12:37:04.126Z,7.75
2023-04-17T12:39:30.827Z,6.03
2023-04-17T12:41:57.269Z,6.35
2023-04-17T12:44:26.019Z,6.50
2023-04-17T12:46:52.461Z,5.97
2023-04-17T12:49:23.850Z,5.78
2023-04-17T12:51:51.153Z,6.80
2023-04-17T12:54:17.539Z,6.43
2023-04-17T12:56:43.878Z,6.20
2023-04-17T12:59:10.792Z,6.15
2023-04-17T13:01:37.309Z,5.90
2023-04-17T13:04:04.099Z,5.82
2023-04-17T13:06:32.035Z,6.47
2023-04-17T13:09:07.725Z,5.03
2023-04-17T13:11:37.265Z,4.90
2023-04-17T13:14:03.738Z,4.15
2023-04-17T13:16:50.947Z,4.78
2023-04-17T13:19:20.175Z,4.57
2023-04-17T13:24:16.812Z,4.63
2023-04-17T13:26:46.973Z,4.82
2023-04-17T13:29:21.772Z,4.63
2023-04-17T13:32:09.322Z,4.40
2023-04-17T13:34:38.189Z,4.47
2023-04-17T13:37:07.306Z,4.57
2023-04-17T13:39:33.908Z,4.50
2023-04-17T13:42:02.615Z,5.07
2023-04-17T13:44:29.163Z,3.72
2023-04-17T13:46:55.841Z,4.55
2023-04-17T13:49:32.796Z,4.10
2023-04-17T13:52:13.511Z,4.57
2023-04-17T13:54:41.422Z,4.57
2023-04-17T13:57:11.522Z,3.83
2023-04-17T13:59:39.027Z,5.20
2023-04-17T14:02:10.279Z,3.40
2023-04-17T14:04:38.120Z,4.18
2023-04-17T14:07:05.553Z,4.28
2023-04-17T14:09:33.363Z,3.38
2023-04-17T14:12:03.277Z,4.95
2023-04-17T14:14:32.375Z,3.40
2023-04-17T14:17:01.176Z,3.40
2023-04-17T14:19:30.033Z,4.28
2023-04-17T14:21:56.384Z,3.20
2023-04-17T14:24:25.493Z,3.83
2023-04-17T14:26:52.276Z,3.67
2023-04-17T14:29:18.928Z,3.80
2023-04-17T14:31:46.018Z,3.30
2023-04-17T14:34:14.014Z,2.45
2023-04-17T14:36:45.333Z,2.83
2023-04-17T14:39:14.804Z,2.63
2023-04-17T14:41:46.499Z,3.42
2023-04-17T14:44:18.267Z,2.60
2023-04-17T14:46:50.702Z,3.05
2023-04-17T14:49:22.953Z,2.30
2023-04-17T14:51:49.458Z,2.00
2023-04-17T14:54:17.834Z,2.35
2023-04-17T14:56:44.250Z,2.45
2023-04-17T14:59:11.441Z,2.20
2023-04-17T15:01:40.838Z,1.90
2023-04-17T15:04:10.136Z,2.83
2023-04-17T15:06:39.465Z,2.53
2023-04-17T15:11:37.080Z,2.33
2023-04-17T15:14:07.697Z,2.70
2023-04-17T15:16:34.286Z,2.65
2023-04-17T15:19:09.957Z,2.67
2023-04-17T15:24:09.120Z,1.95
2023-04-17T15:26:36.752Z,2.30
2023-04-17T15:29:03.805Z,2.40
2023-04-17T15:31:35.182Z,2.05
2023-04-17T15:34:01.728Z,2.30
2023-04-17T15:36:31.432Z,2.05
2023-04-17T15:38:57.965Z,2.20
2023-04-17T15:41:25.589Z,2.28
2023-04-17T15:43:52.296Z,2.53
2023-04-17T15:46:19.215Z,2.10
2023-04-17T15:48:57.738Z,2.05
2023-04-17T15:51:35.020Z,2.00
2023-04-17T15:54:03.264Z,2.00
2023-04-17T15:56:31.319Z,2.08
2023-04-17T15:58:58.254Z,2.15
2023-04-17T16:01:32.225Z,2.40
2023-04-17T16:03:59.175Z,2.38
2023-04-17T16:06:29.203Z,2.20
2023-04-17T16:08:56.000Z,2.88
2023-04-17T16:11:22.649Z,2.17
2023-04-17T16:13:53.187Z,2.42
2023-04-17T16:16:19.800Z,2.03
2023-04-17T16:18:47.148Z,2.15
2023-04-17T16:21:16.367Z,2.50
2023-04-17T16:23:45.585Z,2.45
2023-04-17T16:28:40.340Z,2.17
2023-04-17T16:31:09.882Z,2.45
2023-04-17T16:33:42.070Z,3.03
2023-04-17T16:36:08.657Z,2.40
2023-04-17T16:38:38.609Z,1.77
2023-04-17T16:41:05.200Z,2.00
2023-04-17T16:43:34.498Z,1.90
2023-04-17T16:46:20.649Z,2.40
2023-04-17T16:48:54.466Z,2.10
2023-04-17T16:51:23.577Z,2.88
2023-04-17T16:56:20.428Z,2.40
2023-04-17T16:58:48.120Z,2.28
2023-04-17T17:01:17.275Z,2.22
2023-04-17T17:03:44.918Z,2.55
2023-04-17T17:06:12.008Z,2.00
2023-04-17T17:08:39.091Z,3.38
2023-04-17T17:11:07.907Z,2.60
2023-04-17T17:13:34.527Z,2.30
2023-04-17T17:16:01.271Z,2.42
2023-04-17T17:18:27.888Z,2.33
2023-04-17T17:20:56.829Z,5.28
2023-04-17T17:23:23.430Z,2.85
2023-04-17T17:25:49.990Z,2.58
2023-04-17T17:28:16.522Z,30.33
2023-04-17T17:30:43.146Z,9.05
2023-04-17T17:33:09.657Z,2.47
2023-04-17T17:35:39.319Z,2.55
2023-04-17T17:38:05.962Z,3.05
2023-04-17T17:40:35.145Z,2.60
2023-04-17T17:43:04.814Z,2.47
2023-04-17T17:45:37.184Z,2.58
2023-04-17T17:48:04.100Z,2.25
2023-04-17T17:50:37.951Z,2.95
2023-04-17T17:53:04.666Z,2.67
2023-04-17T17:55:37.589Z,3.03
2023-04-17T17:58:08.505Z,2.78
2023-04-17T18:00:37.709Z,3.00
2023-04-17T18:05:33.553Z,2.67
2023-04-17T18:08:02.760Z,2.72
2023-04-17T18:12:58.030Z,3.72
2023-04-17T18:15:24.607Z,2.97
2023-04-17T18:17:53.513Z,2.95
2023-04-17T18:20:21.912Z,2.63
2023-04-17T18:22:50.103Z,2.80
2023-04-17T18:25:19.112Z,2.97
2023-04-17T18:27:48.143Z,2.75
2023-04-17T18:30:17.826Z,2.78
2023-04-17T18:32:47.484Z,3.47
2023-04-17T18:35:14.170Z,2.83
2023-04-17T18:37:44.849Z,2.90
2023-04-17T18:40:13.019Z,3.00
2023-04-17T18:42:39.615Z,3.05
2023-04-17T18:45:06.547Z,3.33
2023-04-17T18:47:33.028Z,3.22
2023-04-17T18:49:59.434Z,3.08
2023-04-17T18:52:25.915Z,3.45
2023-04-17T18:54:52.214Z,2.63
2023-04-17T18:57:18.504Z,3.53
2023-04-17T18:59:44.877Z,3.55
2023-04-17T19:02:11.395Z,3.60
2023-04-17T19:04:37.716Z,3.28
2023-04-17T19:07:04.089Z,2.95
2023-04-17T19:09:30.575Z,2.83
2023-04-17T19:11:58.417Z,3.03
2023-04-17T19:14:24.988Z,3.22
2023-04-17T19:16:51.830Z,3.17
2023-04-17T19:19:18.188Z,3.00
2023-04-17T19:21:44.648Z,2.90
2023-04-17T19:24:11.005Z,2.97
2023-04-17T19:26:37.842Z,3.15
2023-04-17T19:29:04.968Z,3.20
2023-04-17T19:31:32.058Z,3.22
2023-04-17T19:33:58.990Z,3.30
2023-04-17T19:36:27.341Z,3.53
2023-04-17T19:38:55.422Z,3.25
2023-04-17T19:41:21.974Z,3.03
2023-04-17T19:43:49.669Z,3.38
2023-04-17T19:46:16.827Z,2.95
2023-04-17T19:48:44.638Z,2.83
2023-04-17T19:51:13.026Z,3.60
2023-04-17T19:53:40.911Z,2.95
2023-04-17T19:56:08.744Z,2.88
2023-04-17T19:58:35.796Z,2.95
2023-04-17T20:01:02.294Z,3.40
2023-04-17T20:03:30.223Z,3.33
2023-04-17T20:05:58.099Z,3.17
2023-04-17T20:08:25.566Z,4.15
2023-04-17T20:10:52.153Z,4.15
2023-04-17T20:13:18.513Z,3.97
2023-04-17T20:15:44.943Z,3.80
2023-04-17T20:18:11.556Z,3.53
2023-04-17T20:20:38.315Z,3.80
2023-04-17T20:23:07.749Z,3.50
2023-04-17T20:25:34.344Z,3.47
2023-04-17T20:28:02.656Z,3.92
2023-04-17T20:30:29.414Z,3.50
2023-04-17T20:32:56.115Z,3.45
2023-04-17T20:35:24.475Z,3.47
2023-04-17T20:37:51.729Z,3.88
2023-04-17T20:40:18.537Z,3.95
2023-04-17T20:42:45.581Z,3.80
2023-04-17T20:45:12.008Z,3.50
2023-04-17T20:47:43.514Z,3.58
2023-04-17T20:50:21.770Z,4.07
2023-04-17T20:52:48.173Z,4.03
2023-04-17T20:55:15.082Z,3.67
2023-04-17T20:57:41.453Z,3.95
2023-04-17T21:00:09.025Z,3.65
2023-04-17T21:02:35.547Z,3.42
2023-04-17T21:05:01.989Z,3.75
2023-04-17T21:07:28.945Z,3.97
2023-04-17T21:09:55.289Z,4.25
2023-04-17T21:12:21.781Z,5.00
2023-04-17T21:14:48.211Z,4.45
2023-04-17T21:17:14.632Z,4.18
2023-04-17T21:19:41.197Z,4.28
2023-04-17T21:22:07.565Z,4.63
2023-04-17T21:24:33.892Z,5.45
2023-04-17T21:27:02.383Z,5.55
2023-04-17T21:29:29.259Z,5.72
2023-04-17T21:31:56.574Z,5.85
2023-04-17T21:34:26.630Z,5.45
2023-04-17T21:36:54.254Z,5.97
2023-04-17T21:39:21.486Z,6.32
2023-04-17T21:41:50.088Z,5.82
2023-04-17T21:44:16.448Z,5.88
2023-04-17T21:46:48.520Z,6.30
2023-04-17T21:49:14.937Z,6.68
2023-04-17T21:51:41.281Z,6.38
2023-04-17T21:54:11.078Z,6.38
2023-04-17T21:56:39.921Z,6.57
2023-04-17T21:59:06.251Z,6.97
2023-04-17T22:01:35.492Z,6.70
2023-04-17T22:06:36.357Z,6.35
2023-04-17T22:09:04.024Z,6.05
2023-04-17T22:11:30.484Z,7.13
2023-04-17T22:13:56.953Z,5.90
2023-04-17T22:16:23.268Z,6.72
2023-04-17T22:18:49.648Z,6.50
2023-04-17T22:21:16.076Z,6.65
2023-04-17T22:23:43.524Z,6.00
2023-04-17T22:26:12.969Z,6.50
2023-04-17T22:28:39.412Z,6.88
2023-04-17T22:31:05.779Z,6.38
2023-04-17T22:33:32.130Z,7.00
2023-04-17T22:35:58.431Z,7.15
2023-04-17T22:38:24.721Z,6.80
2023-04-17T22:40:51.055Z,6.95
2023-04-17T22:43:17.374Z,6.93
2023-04-17T22:45:43.853Z,7.20
2023-04-17T22:48:13.192Z,7.95
2023-04-17T22:50:41.660Z,7.40
2023-04-17T22:53:08.013Z,6.47
2023-04-17T22:55:34.530Z,7.40
2023-04-17T22:58:02.187Z,7.50
2023-04-17T23:00:30.202Z,8.88
2023-04-17T23:02:56.644Z,7.15
2023-04-17T23:05:23.257Z,8.70
2023-04-17T23:07:51.817Z,9.20
2023-04-17T23:10:20.086Z,9.65
2023-04-17T23:12:46.406Z,8.63
2023-04-17T23:15:12.921Z,7.55
2023-04-17T23:17:39.394Z,7.80
2023-04-17T23:20:06.393Z,7.90
2023-04-17T23:22:36.476Z,7.88
2023-04-17T23:25:05.404Z,9.15
2023-04-17T23:27:32.008Z,7.90
2023-04-17T23:29:59.345Z,8.05
2023-04-17T23:32:25.826Z,7.93
2023-04-17T23:34:52.371Z,8.82
2023-04-17T23:37:18.846Z,8.98
2023-04-17T23:39:45.289Z,8.23
2023-04-17T23:42:11.676Z,7.82
2023-04-17T23:44:38.162Z,8.88
2023-04-17T23:47:04.846Z,8.75
2023-04-17T23:49:31.564Z,8.25
2023-04-17T23:51:58.003Z,10.02
2023-04-17T23:54:24.390Z,8.70
2023-04-17T23:56:50.745Z,8.65
2023-04-17T23:59:17.205Z,9.35
